createdAt,value
2019-02-17T00:02:12.387Z,80.70
2019-02-17T00:04:42.458Z,70.80
2019-02-17T00:07:12.840Z,73.03
2019-02-17T00:09:42.966Z,63.83
2019-02-17T00:12:12.438Z,61.23
2019-02-17T00:14:42.438Z,57.43
2019-02-17T00:17:12.341Z,56.63
2019-02-17T00:19:42.418Z,56.77
2019-02-17T00:22:12.639Z,56.33
2019-02-17T00:24:42.678Z,54.97
2019-02-17T00:27:12.798Z,49.57
2019-02-17T00:29:42.779Z,45.97
2019-02-17T00:32:12.578Z,52.77
2019-02-17T00:34:44.239Z,51.53
2019-02-17T00:37:14.366Z,61.30
2019-02-17T00:39:44.981Z,55.63
2019-02-17T00:42:15.099Z,52.90
2019-02-17T00:44:45.318Z,58.77
2019-02-17T00:47:15.546Z,53.57
2019-02-17T00:49:45.487Z,50.00
2019-02-17T00:52:15.582Z,52.70
2019-02-17T00:54:46.158Z,58.23
2019-02-17T00:57:17.340Z,59.73
2019-02-17T00:59:47.378Z,61.93
2019-02-17T01:02:17.382Z,57.50
2019-02-17T01:04:47.602Z,69.93
2019-02-17T01:07:17.870Z,67.30
2019-02-17T01:09:47.942Z,65.93
2019-02-17T01:12:17.842Z,61.40
2019-02-17T01:14:48.282Z,64.50
2019-02-17T01:17:18.322Z,65.97
2019-02-17T01:19:48.530Z,64.23
2019-02-17T01:22:18.721Z,65.37
2019-02-17T01:24:49.701Z,72.47
2019-02-17T01:27:19.709Z,59.20
2019-02-17T01:29:49.783Z,57.80
2019-02-17T01:32:21.241Z,60.53
2019-02-17T01:34:51.403Z,59.13
2019-02-17T01:37:21.500Z,57.23
2019-02-17T01:39:54.041Z,63.97
2019-02-17T01:42:25.200Z,61.17
2019-02-17T01:44:55.160Z,59.83
2019-02-17T01:47:27.008Z,64.03
2019-02-17T01:49:57.221Z,56.07
2019-02-17T01:52:27.456Z,71.33
2019-02-17T01:54:57.748Z,63.20
2019-02-17T01:57:28.000Z,64.87
2019-02-17T01:59:58.200Z,68.23
2019-02-17T02:02:28.502Z,64.33
2019-02-17T02:04:58.728Z,57.30
2019-02-17T02:07:29.080Z,68.50
2019-02-17T02:09:59.319Z,65.20
2019-02-17T02:12:29.555Z,66.57
2019-02-17T02:15:01.601Z,67.60
2019-02-17T02:17:31.520Z,66.87
2019-02-17T02:20:01.662Z,70.10
2019-02-17T02:22:31.819Z,71.63
2019-02-17T02:25:04.680Z,66.37
2019-02-17T02:27:34.759Z,69.03
2019-02-17T02:30:09.025Z,61.13
2019-02-17T02:32:39.338Z,71.27
2019-02-17T02:35:09.688Z,69.70
2019-02-17T02:37:39.698Z,64.87
2019-02-17T02:40:09.910Z,75.97
2019-02-17T02:42:39.926Z,62.57
2019-02-17T02:45:11.318Z,69.70
2019-02-17T02:47:41.179Z,65.03
2019-02-17T02:50:12.125Z,66.20
2019-02-17T02:52:41.827Z,69.97
2019-02-17T02:55:11.959Z,62.53
2019-02-17T02:57:42.139Z,65.17
2019-02-17T03:00:13.238Z,62.90
2019-02-17T03:02:43.719Z,67.77
2019-02-17T03:05:13.358Z,64.40
2019-02-17T03:07:43.458Z,66.23
2019-02-17T03:10:13.317Z,64.83
2019-02-17T03:12:43.278Z,70.63
2019-02-17T03:15:13.302Z,61.40
2019-02-17T03:17:44.722Z,65.00
2019-02-17T03:20:14.711Z,66.47
2019-02-17T03:22:44.982Z,66.60
2019-02-17T03:25:14.964Z,62.10
2019-02-17T03:27:45.133Z,67.80
2019-02-17T03:30:15.371Z,70.40
2019-02-17T03:32:45.538Z,68.57
2019-02-17T03:35:15.781Z,70.23
2019-02-17T03:37:45.800Z,59.93
2019-02-17T03:40:16.108Z,68.87
2019-02-17T03:42:46.363Z,69.50
2019-02-17T03:45:18.328Z,73.77
2019-02-17T03:47:48.452Z,59.03
2019-02-17T03:50:18.564Z,67.13
2019-02-17T03:52:48.786Z,67.80
2019-02-17T03:55:18.909Z,64.40
2019-02-17T03:57:48.803Z,70.13
2019-02-17T04:00:18.892Z,58.00
2019-02-17T04:02:48.973Z,63.80
2019-02-17T04:05:19.186Z,70.33
2019-02-17T04:07:49.248Z,67.70
2019-02-17T04:10:19.630Z,70.23
2019-02-17T04:12:49.876Z,77.53
2019-02-17T04:15:19.657Z,65.50
2019-02-17T04:17:50.832Z,76.23
2019-02-17T04:20:20.822Z,71.53
2019-02-17T04:22:50.934Z,69.13
2019-02-17T04:25:20.991Z,69.97
2019-02-17T04:27:52.278Z,67.00
2019-02-17T04:30:29.389Z,69.60
2019-02-17T04:32:54.151Z,69.67
2019-02-17T04:35:24.236Z,73.87
2019-02-17T04:37:54.291Z,73.57
2019-02-17T04:40:24.465Z,66.90
2019-02-17T04:42:54.568Z,67.63
2019-02-17T04:45:24.959Z,65.33
2019-02-17T04:47:54.952Z,68.70
2019-02-17T04:50:24.979Z,75.50
2019-02-17T04:52:55.189Z,67.23
2019-02-17T04:55:25.449Z,74.73
2019-02-17T04:57:55.587Z,71.70
2019-02-17T05:00:25.586Z,72.80
2019-02-17T05:02:55.730Z,74.30
2019-02-17T05:05:25.954Z,75.07
2019-02-17T05:07:56.283Z,70.43
2019-02-17T05:10:26.445Z,72.50
2019-02-17T05:12:56.625Z,84.43
2019-02-17T05:15:26.866Z,76.23
2019-02-17T05:17:57.121Z,75.23
2019-02-17T05:20:27.481Z,82.37
2019-02-17T05:22:57.705Z,79.33
2019-02-17T05:25:27.760Z,74.50
2019-02-17T05:27:58.916Z,81.00
2019-02-17T05:30:29.155Z,75.80
2019-02-17T05:32:59.616Z,80.90
2019-02-17T05:35:31.136Z,80.77
2019-02-17T05:38:01.141Z,72.90
2019-02-17T05:40:31.193Z,83.90
2019-02-17T05:43:01.295Z,77.13
2019-02-17T05:45:31.586Z,81.33
2019-02-17T05:48:01.898Z,85.67
2019-02-17T05:50:32.172Z,74.17
2019-02-17T05:53:02.274Z,77.10
2019-02-17T05:55:34.055Z,77.57
2019-02-17T05:58:04.279Z,79.37
2019-02-17T06:00:35.171Z,77.47
2019-02-17T06:03:05.221Z,77.57
2019-02-17T06:05:35.775Z,72.53
2019-02-17T06:08:05.945Z,83.03
2019-02-17T06:10:36.539Z,76.27
2019-02-17T06:13:06.738Z,78.20
2019-02-17T06:15:36.590Z,83.20
2019-02-17T06:18:07.580Z,79.10
2019-02-17T06:20:37.684Z,85.60
2019-02-17T06:23:07.726Z,82.30
2019-02-17T06:25:37.771Z,82.93
2019-02-17T06:28:09.047Z,73.17
2019-02-17T06:30:39.104Z,76.70
2019-02-17T06:33:09.325Z,76.57
2019-02-17T06:35:39.482Z,72.87
2019-02-17T06:38:09.528Z,73.80
2019-02-17T06:40:39.764Z,73.87
2019-02-17T06:43:09.851Z,72.53
2019-02-17T06:45:40.101Z,73.13
2019-02-17T06:48:10.241Z,70.57
2019-02-17T06:50:40.154Z,80.23
2019-02-17T06:53:10.447Z,74.67
2019-02-17T06:55:42.152Z,73.90
2019-02-17T06:58:12.207Z,74.43
2019-02-17T07:00:44.079Z,73.27
2019-02-17T07:03:14.503Z,67.63
2019-02-17T07:05:46.381Z,71.87
2019-02-17T07:08:16.908Z,70.17
2019-02-17T07:10:47.234Z,71.47
2019-02-17T07:13:17.363Z,72.40
2019-02-17T07:15:47.608Z,65.70
2019-02-17T07:18:17.672Z,64.60
2019-02-17T07:20:47.912Z,73.37
2019-02-17T07:23:18.106Z,69.00
2019-02-17T07:25:48.185Z,68.80
2019-02-17T07:28:19.277Z,68.40
2019-02-17T07:30:49.733Z,70.80
2019-02-17T07:33:20.028Z,69.37
2019-02-17T07:35:49.820Z,68.20
2019-02-17T07:38:20.056Z,62.73
2019-02-17T07:40:50.188Z,67.23
2019-02-17T07:43:20.521Z,60.27
2019-02-17T07:45:50.845Z,57.87
2019-02-17T07:48:21.049Z,56.93
2019-02-17T07:50:50.927Z,61.00
2019-02-17T07:53:20.964Z,67.93
2019-02-17T07:55:50.999Z,57.27
2019-02-17T07:58:21.125Z,63.87
2019-02-17T08:00:51.126Z,61.90
2019-02-17T08:03:21.244Z,61.13
2019-02-17T08:05:51.395Z,62.23
2019-02-17T08:08:23.708Z,56.97
2019-02-17T08:11:03.504Z,62.50
2019-02-17T08:13:26.024Z,61.83
2019-02-17T08:15:56.701Z,58.23
2019-02-17T08:18:26.936Z,61.90
2019-02-17T08:20:56.967Z,57.53
2019-02-17T08:23:26.928Z,58.73
2019-02-17T08:25:57.261Z,62.60
2019-02-17T08:28:29.402Z,64.77
2019-02-17T08:30:59.766Z,59.03
2019-02-17T08:33:29.870Z,60.40
2019-02-17T08:36:00.055Z,66.03
2019-02-17T08:38:30.628Z,64.00
2019-02-17T08:41:01.102Z,62.63
2019-02-17T08:43:31.047Z,71.07
2019-02-17T08:46:01.291Z,57.50
2019-02-17T08:48:31.561Z,59.43
2019-02-17T08:51:01.963Z,61.73
2019-02-17T08:53:32.555Z,61.20
2019-02-17T08:56:02.651Z,59.67
2019-02-17T08:58:32.449Z,61.13
2019-02-17T09:01:01.886Z,60.03
2019-02-17T09:03:32.165Z,57.33
2019-02-17T09:06:02.573Z,48.40
2019-02-17T09:08:32.750Z,52.67
2019-02-17T09:11:02.834Z,48.77
2019-02-17T09:13:33.242Z,47.63
2019-02-17T09:16:03.350Z,56.70
2019-02-17T09:18:33.578Z,50.40
2019-02-17T09:21:03.606Z,48.70
2019-02-17T09:23:33.667Z,47.77
2019-02-17T09:26:03.827Z,45.20
2019-02-17T09:28:34.532Z,39.97
2019-02-17T09:31:04.560Z,37.80
2019-02-17T09:33:34.579Z,33.57
2019-02-17T09:36:04.803Z,32.07
2019-02-17T09:38:35.001Z,39.03
2019-02-17T09:41:05.193Z,39.50
2019-02-17T09:43:35.237Z,34.10
2019-02-17T09:46:05.557Z,35.10
2019-02-17T09:48:35.523Z,31.07
2019-02-17T09:51:06.108Z,35.43
2019-02-17T09:53:36.183Z,31.17
2019-02-17T09:56:06.380Z,32.53
2019-02-17T09:58:36.579Z,33.10
2019-02-17T10:01:06.964Z,28.33
2019-02-17T10:03:37.688Z,29.63
2019-02-17T10:06:07.901Z,30.57
2019-02-17T10:08:38.617Z,51.03
2019-02-17T10:11:08.814Z,37.73
2019-02-17T10:13:39.075Z,28.17
2019-02-17T10:16:08.993Z,30.87
2019-02-17T10:18:39.189Z,21.63
2019-02-17T10:21:09.235Z,28.20
2019-02-17T10:23:39.320Z,26.17
2019-02-17T10:26:10.447Z,32.37
2019-02-17T10:28:42.599Z,32.27
2019-02-17T10:31:12.410Z,36.20
2019-02-17T10:33:42.685Z,67.27
2019-02-17T10:36:12.767Z,47.23
2019-02-17T10:38:42.560Z,42.53
2019-02-17T10:41:12.582Z,45.63
2019-02-17T10:43:42.654Z,34.90
2019-02-17T10:46:16.243Z,29.20
2019-02-17T10:48:54.593Z,48.10
2019-02-17T10:51:31.351Z,84.63
2019-02-17T10:54:05.189Z,40.50
2019-02-17T10:56:42.130Z,40.60
2019-02-17T10:59:20.176Z,35.67
2019-02-17T11:01:52.489Z,33.13
2019-02-17T11:04:29.688Z,29.47
2019-02-17T11:07:04.639Z,25.83
2019-02-17T11:09:39.036Z,26.03
2019-02-17T11:12:13.180Z,30.70
2019-02-17T11:14:46.427Z,34.80
2019-02-17T11:17:19.622Z,31.80
2019-02-17T11:19:52.468Z,27.93
2019-02-17T11:22:23.664Z,26.10
2019-02-17T11:24:54.183Z,33.13
2019-02-17T11:27:25.541Z,29.57
2019-02-17T11:29:56.507Z,27.80
2019-02-17T11:32:27.099Z,27.73
2019-02-17T11:34:57.901Z,29.20
2019-02-17T11:37:27.820Z,30.70
2019-02-17T11:39:58.461Z,30.03
2019-02-17T11:42:28.779Z,34.17
2019-02-17T11:44:59.385Z,34.27
2019-02-17T11:47:29.704Z,34.20
2019-02-17T11:50:00.663Z,32.13
2019-02-17T11:52:31.220Z,27.77
2019-02-17T11:55:01.057Z,24.77
2019-02-17T11:57:30.968Z,30.23
2019-02-17T12:00:00.787Z,32.40
2019-02-17T12:02:30.826Z,27.17
2019-02-17T12:05:01.159Z,31.30
2019-02-17T12:07:31.408Z,35.03
2019-02-17T12:10:01.333Z,34.30
2019-02-17T12:12:31.777Z,30.93
2019-02-17T12:15:01.707Z,39.57
2019-02-17T12:17:32.002Z,36.37
2019-02-17T12:20:03.510Z,29.60
2019-02-17T12:22:35.303Z,32.40
2019-02-17T12:25:05.649Z,28.10
2019-02-17T12:27:38.418Z,29.47
2019-02-17T12:30:10.616Z,26.17
2019-02-17T12:32:41.300Z,37.07
2019-02-17T12:35:11.732Z,32.20
2019-02-17T12:37:41.901Z,35.20
2019-02-17T12:40:11.589Z,46.80
2019-02-17T12:42:42.735Z,35.93
2019-02-17T12:45:15.413Z,38.67
2019-02-17T12:47:44.489Z,31.80
2019-02-17T12:50:14.730Z,38.23
2019-02-17T12:52:47.735Z,36.53
2019-02-17T12:55:16.900Z,32.90
2019-02-17T12:57:47.148Z,33.67
2019-02-17T13:00:18.261Z,34.93
2019-02-17T13:02:48.258Z,41.17
2019-02-17T13:05:18.278Z,36.90
2019-02-17T13:07:48.443Z,39.33
2019-02-17T13:10:18.820Z,34.63
2019-02-17T13:12:48.858Z,35.00
2019-02-17T13:15:18.882Z,31.63
2019-02-17T13:17:49.749Z,36.10
2019-02-17T13:20:20.020Z,37.33
2019-02-17T13:22:50.465Z,32.03
2019-02-17T13:25:20.096Z,28.77
2019-02-17T13:27:50.280Z,26.57
2019-02-17T13:30:23.365Z,26.13
2019-02-17T13:32:53.657Z,26.70
2019-02-17T13:35:23.820Z,25.97
2019-02-17T13:37:54.325Z,27.20
2019-02-17T13:40:24.572Z,32.03
2019-02-17T13:42:54.870Z,33.03
2019-02-17T13:45:24.555Z,23.63
2019-02-17T13:47:54.588Z,26.20
2019-02-17T13:50:24.835Z,21.33
2019-02-17T13:52:55.166Z,22.70
2019-02-17T13:55:25.314Z,23.00
2019-02-17T13:57:55.647Z,24.43
2019-02-17T14:00:25.927Z,25.63
2019-02-17T14:02:56.062Z,20.43
2019-02-17T14:05:26.165Z,20.20
2019-02-17T14:07:56.512Z,18.97
2019-02-17T14:10:26.801Z,20.67
2019-02-17T14:12:56.791Z,18.07
2019-02-17T14:15:26.865Z,20.43
2019-02-17T14:17:56.697Z,18.67
2019-02-17T14:20:26.670Z,21.17
2019-02-17T14:22:56.980Z,21.23
2019-02-17T14:25:27.111Z,24.77
2019-02-17T14:27:57.234Z,23.27
2019-02-17T14:30:27.565Z,23.13
2019-02-17T14:32:57.783Z,22.77
2019-02-17T14:35:28.017Z,17.53
2019-02-17T14:37:58.257Z,23.13
2019-02-17T14:40:28.326Z,21.40
2019-02-17T14:42:58.787Z,22.87
2019-02-17T14:45:28.789Z,24.20
2019-02-17T14:47:59.001Z,22.30
2019-02-17T14:50:28.534Z,25.57
2019-02-17T14:52:58.538Z,21.80
2019-02-17T14:55:28.734Z,22.33
2019-02-17T14:58:05.404Z,24.30
2019-02-17T15:00:30.737Z,23.60
2019-02-17T15:03:00.776Z,21.30
2019-02-17T15:05:30.856Z,28.47
2019-02-17T15:08:00.995Z,37.43
2019-02-17T15:10:31.068Z,26.47
2019-02-17T15:13:01.011Z,26.10
2019-02-17T15:15:31.388Z,35.03
2019-02-17T15:18:01.441Z,23.90
2019-02-17T15:20:31.844Z,31.93
2019-02-17T15:23:02.094Z,27.53
2019-02-17T15:25:32.216Z,22.00
2019-02-17T15:28:02.417Z,24.53
2019-02-17T15:30:32.705Z,27.33
2019-02-17T15:33:04.443Z,25.23
2019-02-17T15:35:34.928Z,22.87
2019-02-17T15:38:05.178Z,25.17
2019-02-17T15:40:34.920Z,29.37
2019-02-17T15:43:04.847Z,27.77
2019-02-17T15:45:35.198Z,35.23
2019-02-17T15:48:05.480Z,31.67
2019-02-17T15:50:35.817Z,26.77
2019-02-17T15:53:05.945Z,33.13
2019-02-17T15:55:36.129Z,30.10
2019-02-17T15:58:06.305Z,31.33
2019-02-17T16:00:36.456Z,28.93
2019-02-17T16:03:06.416Z,31.13
2019-02-17T16:05:37.981Z,30.90
2019-02-17T16:08:08.375Z,30.67
2019-02-17T16:10:38.537Z,34.13
2019-02-17T16:13:09.060Z,31.00
2019-02-17T16:15:39.412Z,26.70
2019-02-17T16:18:09.737Z,32.30
2019-02-17T16:20:40.235Z,30.93
2019-02-17T16:23:10.406Z,31.50
2019-02-17T16:25:40.411Z,33.27
2019-02-17T16:28:10.399Z,35.77
2019-02-17T16:30:40.613Z,45.37
2019-02-17T16:33:10.723Z,43.97
2019-02-17T16:35:41.024Z,38.90
2019-02-17T16:38:12.756Z,39.87
2019-02-17T16:40:43.124Z,39.67
2019-02-17T16:43:13.261Z,34.80
2019-02-17T16:45:43.736Z,41.17
2019-02-17T16:48:13.775Z,39.20
2019-02-17T16:50:43.956Z,39.03
2019-02-17T16:53:14.604Z,41.77
2019-02-17T16:55:44.900Z,37.10
2019-02-17T16:58:16.184Z,38.43
2019-02-17T17:00:46.122Z,37.73
2019-02-17T17:03:16.392Z,37.93
2019-02-17T17:05:46.630Z,40.83
2019-02-17T17:08:17.495Z,39.53
2019-02-17T17:10:54.128Z,41.50
2019-02-17T17:13:26.679Z,43.37
2019-02-17T17:15:57.813Z,47.73
2019-02-17T17:18:27.987Z,41.10
2019-02-17T17:20:57.982Z,49.67
2019-02-17T17:23:34.099Z,41.80
2019-02-17T17:26:04.981Z,43.43
2019-02-17T17:28:37.516Z,41.70
2019-02-17T17:31:09.201Z,43.17
2019-02-17T17:33:39.550Z,41.80
2019-02-17T17:36:09.667Z,47.60
2019-02-17T17:38:40.404Z,53.87
2019-02-17T17:41:11.126Z,55.13
2019-02-17T17:43:41.449Z,55.93
2019-02-17T17:46:16.435Z,62.27
2019-02-17T17:48:50.577Z,65.13
2019-02-17T17:51:20.892Z,55.37
2019-02-17T17:53:52.181Z,57.70
2019-02-17T17:56:24.896Z,50.67
2019-02-17T17:58:56.145Z,49.17
2019-02-17T18:01:26.604Z,49.40
2019-02-17T18:03:56.904Z,56.88
2019-02-17T18:06:27.314Z,53.87
2019-02-17T18:08:58.128Z,51.27
2019-02-17T18:11:28.425Z,48.83
2019-02-17T18:13:58.611Z,47.30
2019-02-17T18:16:29.047Z,53.83
2019-02-17T18:18:59.406Z,51.93
2019-02-17T18:21:29.764Z,48.47
2019-02-17T18:24:00.010Z,52.53
2019-02-17T18:26:30.363Z,57.40
2019-02-17T18:29:00.864Z,55.97
2019-02-17T18:31:32.063Z,58.97
2019-02-17T18:34:02.486Z,62.13
2019-02-17T18:36:32.651Z,61.80
2019-02-17T18:39:05.454Z,62.70
2019-02-17T18:41:35.908Z,56.23
2019-02-17T18:44:06.083Z,62.80
2019-02-17T18:46:36.696Z,56.80
2019-02-17T18:49:07.043Z,64.20
2019-02-17T18:51:37.163Z,69.33
2019-02-17T18:54:07.470Z,71.13
2019-02-17T18:56:37.723Z,74.20
2019-02-17T18:59:10.665Z,78.00
2019-02-17T19:01:39.731Z,81.60
2019-02-17T19:04:09.971Z,81.90
2019-02-17T19:06:40.342Z,75.67
2019-02-17T19:09:10.843Z,78.60
2019-02-17T19:11:41.181Z,82.23
2019-02-17T19:14:11.587Z,79.87
2019-02-17T19:16:42.023Z,76.87
2019-02-17T19:19:12.963Z,78.73
2019-02-17T19:21:43.464Z,77.47
2019-02-17T19:24:14.299Z,83.37
2019-02-17T19:26:45.343Z,73.70
2019-02-17T19:29:16.338Z,78.03
2019-02-17T19:31:49.298Z,72.43
2019-02-17T19:34:20.179Z,70.93
2019-02-17T19:36:51.698Z,74.83
2019-02-17T19:39:22.498Z,72.70
2019-02-17T19:41:53.057Z,70.33
2019-02-17T19:44:25.193Z,67.90
2019-02-17T19:46:55.778Z,76.40
2019-02-17T19:49:25.785Z,84.30
2019-02-17T19:51:56.425Z,71.90
2019-02-17T19:54:26.861Z,74.27
2019-02-17T19:56:57.206Z,81.70
2019-02-17T19:59:27.244Z,96.17
2019-02-17T20:01:57.219Z,93.00
2019-02-17T20:04:31.660Z,99.67
2019-02-17T20:07:01.699Z,93.30
2019-02-17T20:09:31.691Z,90.20
2019-02-17T20:12:01.673Z,88.17
2019-02-17T20:14:31.818Z,95.53
2019-02-17T20:17:02.251Z,95.37
2019-02-17T20:19:32.285Z,89.57
2019-02-17T20:22:02.423Z,98.40
2019-02-17T20:24:32.573Z,96.37
2019-02-17T20:27:02.152Z,89.43
2019-02-17T20:29:31.603Z,99.80
2019-02-17T20:32:01.121Z,94.63
2019-02-17T20:34:31.351Z,102.70
2019-02-17T20:37:02.169Z,95.10
2019-02-17T20:39:31.900Z,96.13
2019-02-17T20:42:01.914Z,94.13
2019-02-17T20:44:31.552Z,98.60
2019-02-17T20:47:02.231Z,91.83
2019-02-17T20:49:31.841Z,94.20
2019-02-17T20:52:01.779Z,93.57
2019-02-17T20:54:32.452Z,89.30
2019-02-17T20:57:02.800Z,94.53
2019-02-17T20:59:33.851Z,91.27
2019-02-17T21:02:04.268Z,89.80
2019-02-17T21:04:34.300Z,90.23
2019-02-17T21:07:04.716Z,95.17
2019-02-17T21:09:35.952Z,101.20
2019-02-17T21:12:06.088Z,106.22
2019-02-17T21:14:36.654Z,106.50
2019-02-17T21:17:06.626Z,91.57
2019-02-17T21:19:37.114Z,93.13
2019-02-17T21:22:08.270Z,94.97
2019-02-17T21:24:38.477Z,93.33
2019-02-17T21:27:08.750Z,88.07
2019-02-17T21:29:39.066Z,85.93
2019-02-17T21:32:09.198Z,82.47
2019-02-17T21:34:39.736Z,83.77
2019-02-17T21:37:09.831Z,75.07
2019-02-17T21:39:40.152Z,83.37
2019-02-17T21:42:10.391Z,94.43
2019-02-17T21:44:40.936Z,81.70
2019-02-17T21:47:11.780Z,84.27
2019-02-17T21:49:42.094Z,87.43
2019-02-17T21:52:12.270Z,89.13
2019-02-17T21:54:42.301Z,84.43
2019-02-17T21:57:12.495Z,78.03
2019-02-17T21:59:42.873Z,75.17
2019-02-17T22:02:12.954Z,77.23
2019-02-17T22:04:43.115Z,74.10
2019-02-17T22:07:13.095Z,69.30
2019-02-17T22:09:42.773Z,71.23
2019-02-17T22:12:12.992Z,82.73
2019-02-17T22:14:43.305Z,67.93
2019-02-17T22:17:13.901Z,72.20
2019-02-17T22:19:44.213Z,64.37
2019-02-17T22:22:14.521Z,68.67
2019-02-17T22:24:44.873Z,76.93
2019-02-17T22:27:15.440Z,68.63
2019-02-17T22:29:45.825Z,65.43
2019-02-17T22:32:16.334Z,68.10
2019-02-17T22:34:46.554Z,67.57
2019-02-17T22:37:16.493Z,64.63
2019-02-17T22:39:49.415Z,64.23
2019-02-17T22:42:19.861Z,74.00
2019-02-17T22:44:50.096Z,73.43
2019-02-17T22:47:20.312Z,67.27
2019-02-17T22:49:50.469Z,82.70
2019-02-17T22:52:22.187Z,77.47
2019-02-17T22:54:53.473Z,86.53
2019-02-17T22:57:23.852Z,97.07
2019-02-17T22:59:53.873Z,102.57
2019-02-17T23:02:24.592Z,98.93
2019-02-17T23:04:54.932Z,102.33
2019-02-17T23:07:25.073Z,97.67
2019-02-17T23:09:55.233Z,103.73
2019-02-17T23:12:25.732Z,101.43
2019-02-17T23:14:55.895Z,105.07
2019-02-17T23:17:26.140Z,100.93
2019-02-17T23:19:56.040Z,97.87
2019-02-17T23:22:26.594Z,98.40
2019-02-17T23:24:56.734Z,90.87
2019-02-17T23:27:26.983Z,97.83
2019-02-17T23:29:57.281Z,93.60
2019-02-17T23:32:27.532Z,94.87
2019-02-17T23:34:57.686Z,98.47
2019-02-17T23:37:28.014Z,96.07
2019-02-17T23:39:59.821Z,94.87
2019-02-17T23:42:30.175Z,94.87
2019-02-17T23:45:00.393Z,98.07
2019-02-17T23:47:30.633Z,94.77
2019-02-17T23:50:00.724Z,94.33
2019-02-17T23:52:30.913Z,87.33
2019-02-17T23:55:01.055Z,95.70
2019-02-17T23:57:31.172Z,96.13
